sensor_id;sensor_type;location;lat;lon;timestamp;temperature;humidity
9215;DHT22;4642;51.364;6.788;2023-03-31T00:02:02;10.90;99.90
9215;DHT22;4642;51.364;6.788;2023-03-31T00:04:38;10.90;99.90
9215;DHT22;4642;51.364;6.788;2023-03-31T00:07:04;10.90;99.90
9215;DHT22;4642;51.364;6.788;2023-03-31T00:09:30;10.90;99.90
9215;DHT22;4642;51.364;6.788;2023-03-31T00:11:57;10.80;99.90
9215;DHT22;4642;51.364;6.788;2023-03-31T00:14:23;10.80;99.90
9215;DHT22;4642;51.364;6.788;2023-03-31T00:16:49;10.80;99.90
9215;DHT22;4642;51.364;6.788;2023-03-31T00:19:14;10.80;99.90
9215;DHT22;4642;51.364;6.788;2023-03-31T00:21:45;10.80;99.90
9215;DHT22;4642;51.364;6.788;2023-03-31T00:24:12;10.80;99.90
9215;DHT22;4642;51.364;6.788;2023-03-31T00:26:38;10.80;99.90
9215;DHT22;4642;51.364;6.788;2023-03-31T00:29:05;10.80;99.90
9215;DHT22;4642;51.364;6.788;2023-03-31T00:31:32;10.90;99.90
9215;DHT22;4642;51.364;6.788;2023-03-31T00:33:57;10.90;99.90
9215;DHT22;4642;51.364;6.788;2023-03-31T00:36:24;10.90;99.90
9215;DHT22;4642;51.364;6.788;2023-03-31T00:38:57;10.90;99.90
9215;DHT22;4642;51.364;6.788;2023-03-31T00:41:35;10.90;99.90
9215;DHT22;4642;51.364;6.788;2023-03-31T00:46:43;10.90;99.90
9215;DHT22;4642;51.364;6.788;2023-03-31T00:49:34;10.90;99.90
9215;DHT22;4642;51.364;6.788;2023-03-31T00:52:04;10.90;99.90
9215;DHT22;4642;51.364;6.788;2023-03-31T00:54:33;10.90;99.90
9215;DHT22;4642;51.364;6.788;2023-03-31T00:57:00;10.90;99.90
9215;DHT22;4642;51.364;6.788;2023-03-31T00:59:29;10.90;99.90
9215;DHT22;4642;51.364;6.788;2023-03-31T01:01:56;10.90;99.90
9215;DHT22;4642;51.364;6.788;2023-03-31T01:04:23;11.00;99.90
9215;DHT22;4642;51.364;6.788;2023-03-31T01:07:01;10.90;99.90
9215;DHT22;4642;51.364;6.788;2023-03-31T01:09:31;11.00;99.90
9215;DHT22;4642;51.364;6.788;2023-03-31T01:12:04;11.00;99.90
9215;DHT22;4642;51.364;6.788;2023-03-31T01:14:30;11.00;99.90
9215;DHT22;4642;51.364;6.788;2023-03-31T01:16:57;11.00;99.90
9215;DHT22;4642;51.364;6.788;2023-03-31T01:19:39;11.00;99.90
9215;DHT22;4642;51.364;6.788;2023-03-31T01:27:55;11.00;99.90
9215;DHT22;4642;51.364;6.788;2023-03-31T01:36:32;11.00;99.90
9215;DHT22;4642;51.364;6.788;2023-03-31T01:47:42;11.00;99.90
9215;DHT22;4642;51.364;6.788;2023-03-31T01:50:34;10.90;99.90
9215;DHT22;4642;51.364;6.788;2023-03-31T01:53:44;10.90;99.90
9215;DHT22;4642;51.364;6.788;2023-03-31T01:56:38;10.90;99.90
9215;DHT22;4642;51.364;6.788;2023-03-31T01:59:14;10.90;99.90
9215;DHT22;4642;51.364;6.788;2023-03-31T02:04:38;10.90;99.90
9215;DHT22;4642;51.364;6.788;2023-03-31T02:07:21;10.90;99.90
9215;DHT22;4642;51.364;6.788;2023-03-31T02:09:52;10.90;99.90
9215;DHT22;4642;51.364;6.788;2023-03-31T02:12:24;10.90;99.90
9215;DHT22;4642;51.364;6.788;2023-03-31T02:14:51;10.90;99.90
9215;DHT22;4642;51.364;6.788;2023-03-31T02:17:20;10.90;99.90
9215;DHT22;4642;51.364;6.788;2023-03-31T02:19:56;10.90;99.90
9215;DHT22;4642;51.364;6.788;2023-03-31T02:22:25;10.90;99.90
9215;DHT22;4642;51.364;6.788;2023-03-31T02:24:52;10.90;99.90
9215;DHT22;4642;51.364;6.788;2023-03-31T02:27:24;10.90;99.90
9215;DHT22;4642;51.364;6.788;2023-03-31T02:29:51;10.90;99.90
9215;DHT22;4642;51.364;6.788;2023-03-31T02:32:31;10.90;99.90
9215;DHT22;4642;51.364;6.788;2023-03-31T02:34:59;10.90;99.90
9215;DHT22;4642;51.364;6.788;2023-03-31T02:37:27;10.90;99.90
9215;DHT22;4642;51.364;6.788;2023-03-31T02:39:54;11.00;99.90
9215;DHT22;4642;51.364;6.788;2023-03-31T02:42:24;10.90;99.90
9215;DHT22;4642;51.364;6.788;2023-03-31T02:44:50;11.40;99.90
9215;DHT22;4642;51.364;6.788;2023-03-31T02:47:17;10.90;99.90
9215;DHT22;4642;51.364;6.788;2023-03-31T02:49:48;10.90;99.90
9215;DHT22;4642;51.364;6.788;2023-03-31T02:57:52;10.90;99.90
9215;DHT22;4642;51.364;6.788;2023-03-31T03:05:44;10.90;99.90
9215;DHT22;4642;51.364;6.788;2023-03-31T03:08:16;10.90;99.90
9215;DHT22;4642;51.364;6.788;2023-03-31T03:16:03;10.90;99.90
9215;DHT22;4642;51.364;6.788;2023-03-31T03:18:30;10.90;99.90
9215;DHT22;4642;51.364;6.788;2023-03-31T03:20:56;10.80;99.90
9215;DHT22;4642;51.364;6.788;2023-03-31T03:23:21;10.80;99.90
9215;DHT22;4642;51.364;6.788;2023-03-31T03:25:47;10.80;99.90
9215;DHT22;4642;51.364;6.788;2023-03-31T03:28:12;10.90;99.90
9215;DHT22;4642;51.364;6.788;2023-03-31T03:30:38;10.80;99.90
9215;DHT22;4642;51.364;6.788;2023-03-31T03:33:03;10.80;99.90
9215;DHT22;4642;51.364;6.788;2023-03-31T03:35:32;10.80;99.90
9215;DHT22;4642;51.364;6.788;2023-03-31T03:37:58;10.80;99.90
9215;DHT22;4642;51.364;6.788;2023-03-31T03:40:23;10.80;99.90
9215;DHT22;4642;51.364;6.788;2023-03-31T03:42:49;10.90;99.90
9215;DHT22;4642;51.364;6.788;2023-03-31T03:45:14;10.80;99.90
9215;DHT22;4642;51.364;6.788;2023-03-31T03:47:40;10.70;99.90
9215;DHT22;4642;51.364;6.788;2023-03-31T03:50:06;10.80;99.90
9215;DHT22;4642;51.364;6.788;2023-03-31T03:52:32;10.70;99.90
9215;DHT22;4642;51.364;6.788;2023-03-31T03:54:57;10.80;99.90
9215;DHT22;4642;51.364;6.788;2023-03-31T03:57:23;10.80;99.90
9215;DHT22;4642;51.364;6.788;2023-03-31T03:59:48;10.80;99.90
9215;DHT22;4642;51.364;6.788;2023-03-31T04:02:14;10.70;99.90
9215;DHT22;4642;51.364;6.788;2023-03-31T04:04:40;10.70;99.90
9215;DHT22;4642;51.364;6.788;2023-03-31T04:07:05;10.70;99.90
9215;DHT22;4642;51.364;6.788;2023-03-31T04:09:31;10.70;99.90
9215;DHT22;4642;51.364;6.788;2023-03-31T04:11:56;10.70;99.90
9215;DHT22;4642;51.364;6.788;2023-03-31T04:14:22;10.70;99.90
9215;DHT22;4642;51.364;6.788;2023-03-31T04:16:48;10.70;99.90
9215;DHT22;4642;51.364;6.788;2023-03-31T04:19:14;10.70;99.90
9215;DHT22;4642;51.364;6.788;2023-03-31T04:21:42;10.70;99.90
9215;DHT22;4642;51.364;6.788;2023-03-31T04:24:10;10.70;99.90
9215;DHT22;4642;51.364;6.788;2023-03-31T04:26:40;10.70;99.90
9215;DHT22;4642;51.364;6.788;2023-03-31T04:29:10;10.70;99.90
9215;DHT22;4642;51.364;6.788;2023-03-31T04:31:37;10.70;99.90
9215;DHT22;4642;51.364;6.788;2023-03-31T04:34:03;10.70;99.90
9215;DHT22;4642;51.364;6.788;2023-03-31T04:36:31;10.70;99.90
9215;DHT22;4642;51.364;6.788;2023-03-31T04:38:57;10.70;99.90
9215;DHT22;4642;51.364;6.788;2023-03-31T04:41:24;10.70;99.90
9215;DHT22;4642;51.364;6.788;2023-03-31T04:43:52;10.70;99.90
9215;DHT22;4642;51.364;6.788;2023-03-31T04:46:18;10.70;99.90
9215;DHT22;4642;51.364;6.788;2023-03-31T04:48:44;10.70;99.90
9215;DHT22;4642;51.364;6.788;2023-03-31T04:51:09;10.70;99.90
9215;DHT22;4642;51.364;6.788;2023-03-31T04:53:35;10.70;99.90
9215;DHT22;4642;51.364;6.788;2023-03-31T04:56:01;10.70;99.90
9215;DHT22;4642;51.364;6.788;2023-03-31T04:58:27;10.60;99.90
9215;DHT22;4642;51.364;6.788;2023-03-31T05:00:53;10.60;99.90
9215;DHT22;4642;51.364;6.788;2023-03-31T05:03:19;10.60;99.90
9215;DHT22;4642;51.364;6.788;2023-03-31T05:05:45;10.60;99.90
9215;DHT22;4642;51.364;6.788;2023-03-31T05:08:10;10.50;99.90
9215;DHT22;4642;51.364;6.788;2023-03-31T05:10:36;10.60;99.90
9215;DHT22;4642;51.364;6.788;2023-03-31T05:13:01;10.50;99.90
9215;DHT22;4642;51.364;6.788;2023-03-31T05:15:27;10.50;99.90
9215;DHT22;4642;51.364;6.788;2023-03-31T05:17:53;10.50;99.90
9215;DHT22;4642;51.364;6.788;2023-03-31T05:20:19;10.50;99.90
9215;DHT22;4642;51.364;6.788;2023-03-31T05:22:45;10.50;99.90
9215;DHT22;4642;51.364;6.788;2023-03-31T05:25:12;10.40;99.90
9215;DHT22;4642;51.364;6.788;2023-03-31T05:27:46;10.40;99.90
9215;DHT22;4642;51.364;6.788;2023-03-31T05:30:12;10.40;99.90
9215;DHT22;4642;51.364;6.788;2023-03-31T05:32:38;10.40;99.90
9215;DHT22;4642;51.364;6.788;2023-03-31T05:35:04;10.40;99.90
9215;DHT22;4642;51.364;6.788;2023-03-31T05:37:30;10.40;99.90
9215;DHT22;4642;51.364;6.788;2023-03-31T05:39:56;10.40;99.90
9215;DHT22;4642;51.364;6.788;2023-03-31T05:42:21;10.40;99.90
9215;DHT22;4642;51.364;6.788;2023-03-31T05:44:47;10.40;99.90
9215;DHT22;4642;51.364;6.788;2023-03-31T05:47:13;10.40;99.90
9215;DHT22;4642;51.364;6.788;2023-03-31T05:49:38;10.40;99.90
9215;DHT22;4642;51.364;6.788;2023-03-31T05:52:05;10.40;99.90
9215;DHT22;4642;51.364;6.788;2023-03-31T05:54:31;10.50;99.90
9215;DHT22;4642;51.364;6.788;2023-03-31T05:56:57;10.40;99.90
9215;DHT22;4642;51.364;6.788;2023-03-31T05:59:22;10.50;99.90
9215;DHT22;4642;51.364;6.788;2023-03-31T06:01:48;10.50;99.90
9215;DHT22;4642;51.364;6.788;2023-03-31T06:04:13;10.50;99.90
9215;DHT22;4642;51.364;6.788;2023-03-31T06:06:39;10.50;99.90
9215;DHT22;4642;51.364;6.788;2023-03-31T06:09:05;10.50;99.90
9215;DHT22;4642;51.364;6.788;2023-03-31T06:11:31;10.50;99.90
9215;DHT22;4642;51.364;6.788;2023-03-31T06:13:56;10.50;99.90
9215;DHT22;4642;51.364;6.788;2023-03-31T06:16:22;10.40;99.90
9215;DHT22;4642;51.364;6.788;2023-03-31T06:18:47;10.50;99.90
9215;DHT22;4642;51.364;6.788;2023-03-31T06:21:16;10.50;99.90
9215;DHT22;4642;51.364;6.788;2023-03-31T06:23:43;10.50;99.90
9215;DHT22;4642;51.364;6.788;2023-03-31T06:26:14;10.50;99.90
9215;DHT22;4642;51.364;6.788;2023-03-31T06:28:40;10.50;99.90
9215;DHT22;4642;51.364;6.788;2023-03-31T06:31:08;10.50;99.90
9215;DHT22;4642;51.364;6.788;2023-03-31T06:33:34;10.50;99.90
9215;DHT22;4642;51.364;6.788;2023-03-31T06:36:00;10.40;99.90
9215;DHT22;4642;51.364;6.788;2023-03-31T06:38:29;10.40;99.90
9215;DHT22;4642;51.364;6.788;2023-03-31T06:40:54;10.40;99.90
9215;DHT22;4642;51.364;6.788;2023-03-31T06:43:20;10.40;99.90
9215;DHT22;4642;51.364;6.788;2023-03-31T06:45:46;10.40;99.90
9215;DHT22;4642;51.364;6.788;2023-03-31T06:48:12;10.40;99.90
9215;DHT22;4642;51.364;6.788;2023-03-31T06:50:38;10.40;99.90
9215;DHT22;4642;51.364;6.788;2023-03-31T06:53:04;10.40;99.90
9215;DHT22;4642;51.364;6.788;2023-03-31T06:55:30;10.50;99.90
9215;DHT22;4642;51.364;6.788;2023-03-31T06:57:56;10.50;99.90
9215;DHT22;4642;51.364;6.788;2023-03-31T07:00:22;10.50;99.90
9215;DHT22;4642;51.364;6.788;2023-03-31T07:02:50;10.50;99.90
9215;DHT22;4642;51.364;6.788;2023-03-31T07:05:15;10.40;99.90
9215;DHT22;4642;51.364;6.788;2023-03-31T07:07:42;10.50;99.90
9215;DHT22;4642;51.364;6.788;2023-03-31T07:10:08;10.50;99.90
9215;DHT22;4642;51.364;6.788;2023-03-31T07:12:33;10.50;99.90
9215;DHT22;4642;51.364;6.788;2023-03-31T07:14:59;10.50;99.90
9215;DHT22;4642;51.364;6.788;2023-03-31T07:17:24;10.50;99.90
9215;DHT22;4642;51.364;6.788;2023-03-31T07:19:50;10.50;99.90
9215;DHT22;4642;51.364;6.788;2023-03-31T07:22:15;10.50;99.90
9215;DHT22;4642;51.364;6.788;2023-03-31T07:24:41;10.50;99.90
9215;DHT22;4642;51.364;6.788;2023-03-31T07:27:07;10.50;99.90
9215;DHT22;4642;51.364;6.788;2023-03-31T07:29:32;10.50;99.90
9215;DHT22;4642;51.364;6.788;2023-03-31T07:31:58;10.50;99.90
9215;DHT22;4642;51.364;6.788;2023-03-31T07:34:23;10.50;99.90
9215;DHT22;4642;51.364;6.788;2023-03-31T07:36:49;10.50;99.90
9215;DHT22;4642;51.364;6.788;2023-03-31T07:39:16;10.50;99.90
9215;DHT22;4642;51.364;6.788;2023-03-31T07:41:41;10.60;99.90
9215;DHT22;4642;51.364;6.788;2023-03-31T07:44:07;10.60;99.90
9215;DHT22;4642;51.364;6.788;2023-03-31T07:46:32;10.60;99.90
9215;DHT22;4642;51.364;6.788;2023-03-31T07:48:58;10.60;99.90
9215;DHT22;4642;51.364;6.788;2023-03-31T07:51:26;10.60;99.90
9215;DHT22;4642;51.364;6.788;2023-03-31T07:53:52;10.60;99.90
9215;DHT22;4642;51.364;6.788;2023-03-31T07:56:20;10.70;99.90
9215;DHT22;4642;51.364;6.788;2023-03-31T07:58:46;10.70;99.90
9215;DHT22;4642;51.364;6.788;2023-03-31T08:01:19;10.70;99.90
9215;DHT22;4642;51.364;6.788;2023-03-31T08:03:46;10.70;99.90
9215;DHT22;4642;51.364;6.788;2023-03-31T08:06:19;10.70;99.90
9215;DHT22;4642;51.364;6.788;2023-03-31T08:08:45;10.60;99.90
9215;DHT22;4642;51.364;6.788;2023-03-31T08:11:11;10.60;99.90
9215;DHT22;4642;51.364;6.788;2023-03-31T08:13:36;10.70;99.90
9215;DHT22;4642;51.364;6.788;2023-03-31T08:16:02;10.70;99.90
9215;DHT22;4642;51.364;6.788;2023-03-31T08:18:28;10.60;99.90
9215;DHT22;4642;51.364;6.788;2023-03-31T08:20:54;10.60;99.90
9215;DHT22;4642;51.364;6.788;2023-03-31T08:23:19;10.60;99.90
9215;DHT22;4642;51.364;6.788;2023-03-31T08:25:45;10.60;99.90
9215;DHT22;4642;51.364;6.788;2023-03-31T08:28:11;10.60;99.90
9215;DHT22;4642;51.364;6.788;2023-03-31T08:30:39;10.70;99.90
9215;DHT22;4642;51.364;6.788;2023-03-31T08:33:05;10.70;99.90
9215;DHT22;4642;51.364;6.788;2023-03-31T08:35:31;10.80;99.90
9215;DHT22;4642;51.364;6.788;2023-03-31T08:37:56;10.90;99.90
9215;DHT22;4642;51.364;6.788;2023-03-31T08:40:25;10.90;99.90
9215;DHT22;4642;51.364;6.788;2023-03-31T08:43:10;11.00;99.90
9215;DHT22;4642;51.364;6.788;2023-03-31T08:45:42;11.10;99.90
9215;DHT22;4642;51.364;6.788;2023-03-31T08:50:53;11.30;99.90
9215;DHT22;4642;51.364;6.788;2023-03-31T08:53:30;11.30;99.90
9215;DHT22;4642;51.364;6.788;2023-03-31T08:55:57;11.30;99.90
9215;DHT22;4642;51.364;6.788;2023-03-31T08:58:35;11.40;99.90
9215;DHT22;4642;51.364;6.788;2023-03-31T09:01:15;11.50;99.90
9215;DHT22;4642;51.364;6.788;2023-03-31T09:06:38;11.60;99.90
9215;DHT22;4642;51.364;6.788;2023-03-31T09:09:10;11.70;99.90
9215;DHT22;4642;51.364;6.788;2023-03-31T09:11:57;11.70;99.90
9215;DHT22;4642;51.364;6.788;2023-03-31T09:14:37;11.70;99.90
9215;DHT22;4642;51.364;6.788;2023-03-31T09:17:26;11.70;99.90
9215;DHT22;4642;51.364;6.788;2023-03-31T09:20:30;11.80;99.90
9215;DHT22;4642;51.364;6.788;2023-03-31T09:22:54;11.80;99.90
9215;DHT22;4642;51.364;6.788;2023-03-31T09:25:30;11.80;99.90
9215;DHT22;4642;51.364;6.788;2023-03-31T09:27:58;11.90;99.90
9215;DHT22;4642;51.364;6.788;2023-03-31T09:30:27;11.90;99.90
9215;DHT22;4642;51.364;6.788;2023-03-31T09:33:16;11.90;99.90
9215;DHT22;4642;51.364;6.788;2023-03-31T09:35:42;11.90;99.90
9215;DHT22;4642;51.364;6.788;2023-03-31T09:38:12;12.00;99.90
9215;DHT22;4642;51.364;6.788;2023-03-31T09:40:38;12.00;99.90
9215;DHT22;4642;51.364;6.788;2023-03-31T09:43:14;12.10;99.90
9215;DHT22;4642;51.364;6.788;2023-03-31T09:45:43;12.30;99.90
9215;DHT22;4642;51.364;6.788;2023-03-31T09:48:15;12.20;99.90
9215;DHT22;4642;51.364;6.788;2023-03-31T09:50:50;12.30;99.90
9215;DHT22;4642;51.364;6.788;2023-03-31T09:56:01;12.50;99.90
9215;DHT22;4642;51.364;6.788;2023-03-31T09:58:26;12.60;99.90
9215;DHT22;4642;51.364;6.788;2023-03-31T10:03:26;12.80;99.90
9215;DHT22;4642;51.364;6.788;2023-03-31T10:05:55;12.80;99.90
9215;DHT22;4642;51.364;6.788;2023-03-31T10:10:52;12.90;99.90
9215;DHT22;4642;51.364;6.788;2023-03-31T10:13:40;12.90;99.90
9215;DHT22;4642;51.364;6.788;2023-03-31T10:16:12;12.30;99.90
9215;DHT22;4642;51.364;6.788;2023-03-31T10:18:41;12.00;99.90
9215;DHT22;4642;51.364;6.788;2023-03-31T10:21:27;11.80;99.90
9215;DHT22;4642;51.364;6.788;2023-03-31T10:23:59;11.80;99.90
9215;DHT22;4642;51.364;6.788;2023-03-31T10:26:27;11.80;99.90
9215;DHT22;4642;51.364;6.788;2023-03-31T10:28:54;11.80;99.90
9215;DHT22;4642;51.364;6.788;2023-03-31T10:31:25;11.90;99.90
9215;DHT22;4642;51.364;6.788;2023-03-31T10:33:51;12.10;99.90
9215;DHT22;4642;51.364;6.788;2023-03-31T10:36:26;12.20;99.90
9215;DHT22;4642;51.364;6.788;2023-03-31T10:38:53;12.40;99.90
9215;DHT22;4642;51.364;6.788;2023-03-31T10:41:24;12.50;99.90
9215;DHT22;4642;51.364;6.788;2023-03-31T10:43:56;12.60;99.90
9215;DHT22;4642;51.364;6.788;2023-03-31T10:46:42;12.60;99.90
9215;DHT22;4642;51.364;6.788;2023-03-31T10:51:56;12.70;99.90
9215;DHT22;4642;51.364;6.788;2023-03-31T10:54:22;12.80;99.90
9215;DHT22;4642;51.364;6.788;2023-03-31T10:56:53;12.80;99.90
9215;DHT22;4642;51.364;6.788;2023-03-31T11:00:04;12.80;99.90
9215;DHT22;4642;51.364;6.788;2023-03-31T11:09:25;12.30;99.90
9215;DHT22;4642;51.364;6.788;2023-03-31T11:14:44;12.30;99.90
9215;DHT22;4642;51.364;6.788;2023-03-31T11:22:43;12.30;99.90
9215;DHT22;4642;51.364;6.788;2023-03-31T11:25:26;12.30;99.90
9215;DHT22;4642;51.364;6.788;2023-03-31T11:28:23;12.40;99.90
9215;DHT22;4642;51.364;6.788;2023-03-31T11:31:05;12.40;99.90
9215;DHT22;4642;51.364;6.788;2023-03-31T11:36:45;12.50;99.90
9215;DHT22;4642;51.364;6.788;2023-03-31T11:42:26;12.60;99.90
9215;DHT22;4642;51.364;6.788;2023-03-31T11:45:01;12.60;99.90
9215;DHT22;4642;51.364;6.788;2023-03-31T11:47:32;12.70;99.90
9215;DHT22;4642;51.364;6.788;2023-03-31T11:50:26;12.70;99.90
9215;DHT22;4642;51.364;6.788;2023-03-31T11:52:59;12.70;99.90
9215;DHT22;4642;51.364;6.788;2023-03-31T11:55:28;12.80;99.90
9215;DHT22;4642;51.364;6.788;2023-03-31T11:58:20;12.80;99.90
9215;DHT22;4642;51.364;6.788;2023-03-31T12:00:50;13.00;99.90
9215;DHT22;4642;51.364;6.788;2023-03-31T12:03:33;13.10;99.90
9215;DHT22;4642;51.364;6.788;2023-03-31T12:06:04;13.30;99.90
9215;DHT22;4642;51.364;6.788;2023-03-31T12:16:48;13.20;99.90
9215;DHT22;4642;51.364;6.788;2023-03-31T12:19:29;13.20;99.90
9215;DHT22;4642;51.364;6.788;2023-03-31T12:22:15;13.20;99.90
9215;DHT22;4642;51.364;6.788;2023-03-31T12:24:41;13.10;99.90
9215;DHT22;4642;51.364;6.788;2023-03-31T12:27:20;13.10;99.90
9215;DHT22;4642;51.364;6.788;2023-03-31T12:29:55;13.00;99.90
9215;DHT22;4642;51.364;6.788;2023-03-31T12:32:26;12.90;99.90
9215;DHT22;4642;51.364;6.788;2023-03-31T12:35:01;12.90;99.90
9215;DHT22;4642;51.364;6.788;2023-03-31T12:51:03;13.50;99.90
9215;DHT22;4642;51.364;6.788;2023-03-31T12:56:17;13.70;99.90
9215;DHT22;4642;51.364;6.788;2023-03-31T12:58:44;13.70;99.90
9215;DHT22;4642;51.364;6.788;2023-03-31T13:04:15;13.90;99.90
9215;DHT22;4642;51.364;6.788;2023-03-31T13:11:44;13.90;99.90
9215;DHT22;4642;51.364;6.788;2023-03-31T13:14:25;13.90;99.90
9215;DHT22;4642;51.364;6.788;2023-03-31T13:16:53;14.00;99.90
9215;DHT22;4642;51.364;6.788;2023-03-31T13:19:36;14.10;99.90
9215;DHT22;4642;51.364;6.788;2023-03-31T13:22:04;14.20;99.90
9215;DHT22;4642;51.364;6.788;2023-03-31T13:24:31;14.30;99.90
9215;DHT22;4642;51.364;6.788;2023-03-31T13:27:01;14.30;99.90
9215;DHT22;4642;51.364;6.788;2023-03-31T13:29:43;14.40;99.90
9215;DHT22;4642;51.364;6.788;2023-03-31T13:32:25;14.50;99.90
9215;DHT22;4642;51.364;6.788;2023-03-31T13:37:41;14.50;99.90
9215;DHT22;4642;51.364;6.788;2023-03-31T13:40:29;14.50;99.90
9215;DHT22;4642;51.364;6.788;2023-03-31T13:51:58;14.50;99.90
9215;DHT22;4642;51.364;6.788;2023-03-31T13:54:58;14.50;99.90
9215;DHT22;4642;51.364;6.788;2023-03-31T14:03:45;14.50;99.90
9215;DHT22;4642;51.364;6.788;2023-03-31T14:09:04;14.50;99.90
9215;DHT22;4642;51.364;6.788;2023-03-31T14:11:31;14.60;99.90
9215;DHT22;4642;51.364;6.788;2023-03-31T14:16:36;14.70;99.90
9215;DHT22;4642;51.364;6.788;2023-03-31T14:19:12;14.70;99.90
9215;DHT22;4642;51.364;6.788;2023-03-31T14:21:53;14.60;99.90
9215;DHT22;4642;51.364;6.788;2023-03-31T14:24:40;14.60;99.90
9215;DHT22;4642;51.364;6.788;2023-03-31T14:30:36;14.60;99.90
9215;DHT22;4642;51.364;6.788;2023-03-31T14:33:31;14.60;99.90
9215;DHT22;4642;51.364;6.788;2023-03-31T14:36:15;14.60;99.90
9215;DHT22;4642;51.364;6.788;2023-03-31T14:38:44;14.50;99.90
9215;DHT22;4642;51.364;6.788;2023-03-31T14:41:17;14.50;99.90
9215;DHT22;4642;51.364;6.788;2023-03-31T14:43:48;14.40;99.90
9215;DHT22;4642;51.364;6.788;2023-03-31T14:46:18;14.40;99.90
9215;DHT22;4642;51.364;6.788;2023-03-31T14:48:45;14.40;99.90
9215;DHT22;4642;51.364;6.788;2023-03-31T14:51:14;14.20;99.90
9215;DHT22;4642;51.364;6.788;2023-03-31T14:53:40;13.90;99.90
9215;DHT22;4642;51.364;6.788;2023-03-31T14:56:20;13.60;99.90
9215;DHT22;4642;51.364;6.788;2023-03-31T14:58:49;13.30;99.90
9215;DHT22;4642;51.364;6.788;2023-03-31T15:01:21;13.10;99.90
9215;DHT22;4642;51.364;6.788;2023-03-31T15:03:49;13.10;99.90
9215;DHT22;4642;51.364;6.788;2023-03-31T15:06:16;13.00;99.90
9215;DHT22;4642;51.364;6.788;2023-03-31T15:08:41;12.80;99.90
9215;DHT22;4642;51.364;6.788;2023-03-31T15:11:11;12.80;99.90
9215;DHT22;4642;51.364;6.788;2023-03-31T15:13:41;12.70;99.90
9215;DHT22;4642;51.364;6.788;2023-03-31T15:16:34;12.70;99.90
9215;DHT22;4642;51.364;6.788;2023-03-31T15:19:06;12.60;99.90
9215;DHT22;4642;51.364;6.788;2023-03-31T15:21:36;12.50;99.90
9215;DHT22;4642;51.364;6.788;2023-03-31T15:24:03;12.60;99.90
9215;DHT22;4642;51.364;6.788;2023-03-31T15:26:38;12.80;99.90
9215;DHT22;4642;51.364;6.788;2023-03-31T15:31:39;13.00;99.90
9215;DHT22;4642;51.364;6.788;2023-03-31T15:34:29;13.10;99.90
9215;DHT22;4642;51.364;6.788;2023-03-31T15:36:57;13.20;99.90
9215;DHT22;4642;51.364;6.788;2023-03-31T15:39:25;13.30;99.90
9215;DHT22;4642;51.364;6.788;2023-03-31T15:41:52;13.30;99.90
9215;DHT22;4642;51.364;6.788;2023-03-31T15:44:44;13.30;99.90
9215;DHT22;4642;51.364;6.788;2023-03-31T15:47:18;13.30;99.90
9215;DHT22;4642;51.364;6.788;2023-03-31T15:49:49;13.20;99.90
9215;DHT22;4642;51.364;6.788;2023-03-31T15:52:34;13.10;99.90
9215;DHT22;4642;51.364;6.788;2023-03-31T15:55:01;13.10;99.90
9215;DHT22;4642;51.364;6.788;2023-03-31T15:57:32;13.00;99.90
9215;DHT22;4642;51.364;6.788;2023-03-31T15:59:58;13.00;99.90
9215;DHT22;4642;51.364;6.788;2023-03-31T16:02:39;13.00;99.90
9215;DHT22;4642;51.364;6.788;2023-03-31T16:05:41;13.00;99.90
9215;DHT22;4642;51.364;6.788;2023-03-31T16:08:17;13.00;99.90
9215;DHT22;4642;51.364;6.788;2023-03-31T16:10:44;13.00;99.90
9215;DHT22;4642;51.364;6.788;2023-03-31T16:13:14;13.00;99.90
9215;DHT22;4642;51.364;6.788;2023-03-31T16:15:44;13.00;99.90
9215;DHT22;4642;51.364;6.788;2023-03-31T16:18:16;12.90;99.90
9215;DHT22;4642;51.364;6.788;2023-03-31T16:20:48;12.90;99.90
9215;DHT22;4642;51.364;6.788;2023-03-31T16:23:24;12.90;99.90
9215;DHT22;4642;51.364;6.788;2023-03-31T16:25:50;12.90;99.90
9215;DHT22;4642;51.364;6.788;2023-03-31T16:28:23;12.80;99.90
9215;DHT22;4642;51.364;6.788;2023-03-31T16:30:50;12.80;99.90
9215;DHT22;4642;51.364;6.788;2023-03-31T16:33:18;12.80;99.90
9215;DHT22;4642;51.364;6.788;2023-03-31T16:35:49;12.70;99.90
9215;DHT22;4642;51.364;6.788;2023-03-31T16:38:24;12.70;99.90
9215;DHT22;4642;51.364;6.788;2023-03-31T16:40:51;12.60;99.90
9215;DHT22;4642;51.364;6.788;2023-03-31T16:43:23;12.60;99.90
9215;DHT22;4642;51.364;6.788;2023-03-31T16:45:54;12.40;99.90
9215;DHT22;4642;51.364;6.788;2023-03-31T16:48:24;12.40;99.90
9215;DHT22;4642;51.364;6.788;2023-03-31T16:50:51;12.30;99.90
9215;DHT22;4642;51.364;6.788;2023-03-31T16:53:20;12.30;99.90
9215;DHT22;4642;51.364;6.788;2023-03-31T16:55:46;12.30;99.90
9215;DHT22;4642;51.364;6.788;2023-03-31T16:58:12;12.20;99.90
9215;DHT22;4642;51.364;6.788;2023-03-31T17:00:38;12.10;99.90
9215;DHT22;4642;51.364;6.788;2023-03-31T17:03:05;12.10;99.90
9215;DHT22;4642;51.364;6.788;2023-03-31T17:05:32;12.10;99.90
9215;DHT22;4642;51.364;6.788;2023-03-31T17:08:02;12.10;99.90
9215;DHT22;4642;51.364;6.788;2023-03-31T17:10:27;12.00;99.90
9215;DHT22;4642;51.364;6.788;2023-03-31T17:12:53;11.90;99.90
9215;DHT22;4642;51.364;6.788;2023-03-31T17:15:19;11.90;99.90
9215;DHT22;4642;51.364;6.788;2023-03-31T17:17:45;11.80;99.90
9215;DHT22;4642;51.364;6.788;2023-03-31T17:20:11;11.80;99.90
9215;DHT22;4642;51.364;6.788;2023-03-31T17:22:37;11.70;99.90
9215;DHT22;4642;51.364;6.788;2023-03-31T17:25:03;11.70;99.90
9215;DHT22;4642;51.364;6.788;2023-03-31T17:27:30;11.70;99.90
9215;DHT22;4642;51.364;6.788;2023-03-31T17:29:56;11.60;99.90
9215;DHT22;4642;51.364;6.788;2023-03-31T17:32:22;11.60;99.90
9215;DHT22;4642;51.364;6.788;2023-03-31T17:34:48;11.50;99.90
9215;DHT22;4642;51.364;6.788;2023-03-31T17:37:15;11.40;99.90
9215;DHT22;4642;51.364;6.788;2023-03-31T17:39:41;11.40;99.90
9215;DHT22;4642;51.364;6.788;2023-03-31T17:42:08;11.50;99.90
9215;DHT22;4642;51.364;6.788;2023-03-31T17:44:34;11.40;99.90
9215;DHT22;4642;51.364;6.788;2023-03-31T17:47:00;11.50;99.90
9215;DHT22;4642;51.364;6.788;2023-03-31T17:49:25;11.80;99.90
9215;DHT22;4642;51.364;6.788;2023-03-31T17:51:51;11.40;99.90
9215;DHT22;4642;51.364;6.788;2023-03-31T17:54:17;11.30;99.90
9215;DHT22;4642;51.364;6.788;2023-03-31T17:56:43;11.30;99.90
9215;DHT22;4642;51.364;6.788;2023-03-31T17:59:10;11.30;99.90
9215;DHT22;4642;51.364;6.788;2023-03-31T18:01:35;11.20;99.90
9215;DHT22;4642;51.364;6.788;2023-03-31T18:04:02;11.20;99.90
9215;DHT22;4642;51.364;6.788;2023-03-31T18:06:28;11.20;99.90
9215;DHT22;4642;51.364;6.788;2023-03-31T18:08:54;11.20;99.90
9215;DHT22;4642;51.364;6.788;2023-03-31T18:11:21;11.20;99.90
9215;DHT22;4642;51.364;6.788;2023-03-31T18:13:47;11.10;99.90
9215;DHT22;4642;51.364;6.788;2023-03-31T18:16:13;11.10;99.90
9215;DHT22;4642;51.364;6.788;2023-03-31T18:18:38;11.10;99.90
9215;DHT22;4642;51.364;6.788;2023-03-31T18:21:07;11.10;99.90
9215;DHT22;4642;51.364;6.788;2023-03-31T18:23:33;11.10;99.90
9215;DHT22;4642;51.364;6.788;2023-03-31T18:25:59;11.10;99.90
9215;DHT22;4642;51.364;6.788;2023-03-31T18:28:25;11.10;99.90
9215;DHT22;4642;51.364;6.788;2023-03-31T18:30:51;11.00;99.90
9215;DHT22;4642;51.364;6.788;2023-03-31T18:33:17;11.00;99.90
9215;DHT22;4642;51.364;6.788;2023-03-31T18:35:44;11.00;99.90
9215;DHT22;4642;51.364;6.788;2023-03-31T18:38:11;11.00;99.90
9215;DHT22;4642;51.364;6.788;2023-03-31T18:40:36;11.00;99.90
9215;DHT22;4642;51.364;6.788;2023-03-31T18:43:03;11.00;99.90